createdAt,value
2022-12-08T00:00:03.879Z,6.27
2022-12-08T00:02:44.322Z,7.33
2022-12-08T00:05:30.667Z,5.70
2022-12-08T00:08:16.778Z,6.90
2022-12-08T00:10:50.084Z,9.03
2022-12-08T00:13:18.833Z,6.80
2022-12-08T00:15:46.979Z,5.73
2022-12-08T00:18:17.086Z,6.77
2022-12-08T00:20:45.093Z,6.13
2022-12-08T00:23:13.447Z,6.53
2022-12-08T00:25:41.753Z,5.97
2022-12-08T00:28:09.903Z,6.93
2022-12-08T00:31:28.864Z,6.03
2022-12-08T00:34:00.112Z,5.53
2022-12-08T00:36:28.390Z,6.80
2022-12-08T00:38:57.300Z,7.13
2022-12-08T00:41:45.831Z,5.93
2022-12-08T00:44:17.586Z,6.13
2022-12-08T00:46:47.737Z,6.47
2022-12-08T00:49:18.413Z,5.07
2022-12-08T00:51:47.117Z,6.27
2022-12-08T00:54:16.466Z,6.33
2022-12-08T00:56:44.764Z,7.93
2022-12-08T00:59:13.414Z,5.37
2022-12-08T01:01:41.931Z,5.27
2022-12-08T01:04:15.965Z,5.93
2022-12-08T01:06:46.592Z,6.17
2022-12-08T01:09:18.489Z,5.60
2022-12-08T01:11:47.029Z,8.27
2022-12-08T01:14:15.666Z,5.97
2022-12-08T01:16:46.025Z,7.30
2022-12-08T01:19:17.249Z,5.67
2022-12-08T01:21:47.887Z,4.80
2022-12-08T01:24:20.190Z,4.97
2022-12-08T01:26:52.591Z,6.77
2022-12-08T01:29:20.849Z,6.23
2022-12-08T01:31:49.896Z,4.40
2022-12-08T01:34:19.108Z,4.93
2022-12-08T01:36:49.621Z,4.97
2022-12-08T01:53:02.769Z,4.87
2022-12-08T01:55:39.429Z,5.07
2022-12-08T01:58:15.266Z,7.30
2022-12-08T02:00:45.094Z,5.10
2022-12-08T02:03:23.538Z,5.57
2022-12-08T02:05:54.037Z,5.10
2022-12-08T02:13:28.062Z,6.00
2022-12-08T02:16:04.384Z,11.93
2022-12-08T02:19:28.590Z,14.10
2022-12-08T02:21:57.259Z,10.93
2022-12-08T02:24:38.295Z,11.50
2022-12-08T02:27:42.525Z,8.23
2022-12-08T02:30:23.105Z,12.57
2022-12-08T02:33:57.917Z,14.97
2022-12-08T02:36:34.671Z,11.03
2022-12-08T02:39:16.215Z,11.73
2022-12-08T02:41:56.592Z,10.33
2022-12-08T02:44:33.036Z,7.77
2022-12-08T02:47:09.760Z,9.37
2022-12-08T02:49:39.737Z,7.27
2022-12-08T02:52:43.203Z,12.13
2022-12-08T02:55:23.595Z,6.50
2022-12-08T02:58:21.559Z,8.07
2022-12-08T03:01:14.781Z,5.27
2022-12-08T03:03:55.235Z,5.17
2022-12-08T03:06:36.232Z,7.07
2022-12-08T03:09:13.394Z,5.10
2022-12-08T03:11:49.592Z,4.97
2022-12-08T03:14:21.230Z,5.87
2022-12-08T03:16:56.790Z,6.80
2022-12-08T03:19:29.205Z,5.10
2022-12-08T03:22:04.929Z,7.37
2022-12-08T03:24:38.305Z,6.17
2022-12-08T03:27:10.879Z,6.47
2022-12-08T03:29:39.482Z,8.53
2022-12-08T03:32:22.083Z,6.97
2022-12-08T03:34:53.153Z,4.87
2022-12-08T03:37:23.088Z,8.63
2022-12-08T03:39:51.930Z,5.27
2022-12-08T03:42:22.010Z,8.23
2022-12-08T03:44:50.638Z,6.30
2022-12-08T03:47:18.747Z,8.80
2022-12-08T03:49:47.687Z,6.10
2022-12-08T03:52:16.293Z,8.20
2022-12-08T03:54:46.759Z,7.83
2022-12-08T03:57:15.366Z,7.47
2022-12-08T03:59:43.688Z,5.50
2022-12-08T04:02:13.503Z,4.57
2022-12-08T04:04:41.758Z,7.13
2022-12-08T04:07:11.495Z,5.30
2022-12-08T04:09:41.586Z,5.33
2022-12-08T04:12:11.635Z,6.00
2022-12-08T04:14:39.869Z,6.00
2022-12-08T04:31:48.230Z,3.70
2022-12-08T04:34:16.633Z,5.30
2022-12-08T04:36:45.649Z,5.33
2022-12-08T04:39:14.366Z,5.03
2022-12-08T04:41:43.027Z,5.53
2022-12-08T04:44:12.279Z,5.90
2022-12-08T04:46:43.604Z,5.67
2022-12-08T04:49:13.455Z,9.00
2022-12-08T04:51:42.286Z,5.00
2022-12-08T04:54:10.425Z,5.33
2022-12-08T04:56:40.427Z,3.93
2022-12-08T04:59:09.812Z,4.50
2022-12-08T05:01:38.053Z,3.80
2022-12-08T05:04:07.070Z,5.03
2022-12-08T05:06:36.714Z,5.43
2022-12-08T05:09:05.796Z,6.27
2022-12-08T05:11:34.155Z,10.37
2022-12-08T05:14:02.291Z,6.17
2022-12-08T05:16:31.337Z,7.60
2022-12-08T05:18:59.501Z,7.70
2022-12-08T05:21:28.159Z,5.93
2022-12-08T05:23:59.273Z,4.77
2022-12-08T05:26:27.777Z,28.73
2022-12-08T05:29:27.730Z,32.70
2022-12-08T05:31:56.047Z,37.47
2022-12-08T05:34:25.316Z,24.67
2022-12-08T05:36:53.566Z,19.80
2022-12-08T05:39:48.899Z,17.17
2022-12-08T05:42:21.718Z,41.53
2022-12-08T05:44:53.420Z,31.40
2022-12-08T05:47:21.985Z,19.93
2022-12-08T05:49:50.103Z,21.73
2022-12-08T05:52:19.120Z,17.53
2022-12-08T05:54:48.651Z,12.33
2022-12-08T05:57:16.747Z,12.23
2022-12-08T05:59:45.102Z,7.13
2022-12-08T06:02:13.361Z,10.50
2022-12-08T06:04:42.253Z,7.60
2022-12-08T06:07:15.956Z,8.90
2022-12-08T06:09:44.521Z,13.37
2022-12-08T06:12:14.451Z,11.07
2022-12-08T06:14:42.796Z,9.20
2022-12-08T06:17:11.591Z,14.57
2022-12-08T06:19:40.328Z,8.93
2022-12-08T06:22:08.823Z,10.07
2022-12-08T06:24:37.994Z,7.67
2022-12-08T06:27:06.184Z,12.60
2022-12-08T06:29:36.162Z,138.63
2022-12-08T06:32:04.357Z,46.80
2022-12-08T06:34:34.162Z,53.50
2022-12-08T06:37:02.412Z,70.93
2022-12-08T06:39:31.283Z,64.10
2022-12-08T06:42:13.385Z,37.67
2022-12-08T06:44:43.470Z,26.50
2022-12-08T06:47:11.689Z,36.83
2022-12-08T06:49:39.964Z,24.83
2022-12-08T06:52:08.648Z,24.03
2022-12-08T06:54:38.376Z,18.60
2022-12-08T06:57:07.614Z,23.33
2022-12-08T06:59:35.755Z,20.57
2022-12-08T07:02:06.826Z,20.63
2022-12-08T07:04:35.018Z,17.47
2022-12-08T07:07:03.311Z,20.57
2022-12-08T07:09:32.157Z,21.37
2022-12-08T07:12:00.329Z,11.77
2022-12-08T07:14:29.798Z,12.23
2022-12-08T07:16:58.273Z,10.97
2022-12-08T07:19:28.204Z,25.13
2022-12-08T07:21:56.843Z,13.70
2022-12-08T07:24:25.203Z,10.37
2022-12-08T07:26:53.323Z,12.93
2022-12-08T07:29:26.197Z,7.70
2022-12-08T07:31:54.982Z,8.53
2022-12-08T07:34:23.149Z,4.30
2022-12-08T07:36:53.331Z,5.57
2022-12-08T07:39:21.411Z,4.77
2022-12-08T07:41:50.643Z,5.63
2022-12-08T07:44:19.058Z,5.53
2022-12-08T07:46:47.212Z,7.47
2022-12-08T07:49:17.096Z,8.67
2022-12-08T07:51:45.622Z,3.33
2022-12-08T07:54:15.615Z,5.47
2022-12-08T07:56:43.742Z,5.33
2022-12-08T07:59:14.764Z,4.10
2022-12-08T08:01:45.479Z,4.27
2022-12-08T08:04:14.456Z,4.97
2022-12-08T08:06:42.615Z,8.73
2022-12-08T08:09:11.416Z,4.17
2022-12-08T08:11:41.288Z,8.53
2022-12-08T08:14:09.450Z,4.07
2022-12-08T08:16:38.992Z,3.80
2022-12-08T08:19:07.222Z,5.13
2022-12-08T08:21:50.970Z,4.93
2022-12-08T08:24:20.706Z,7.13
2022-12-08T08:26:50.162Z,11.93
2022-12-08T08:29:18.746Z,17.80
2022-12-08T08:31:46.869Z,20.30
2022-12-08T08:34:15.352Z,23.27
2022-12-08T08:36:43.631Z,20.83
2022-12-08T08:39:13.016Z,56.30
2022-12-08T08:41:43.158Z,4.50
2022-12-08T08:44:15.559Z,10.70
2022-12-08T08:46:45.396Z,8.50
2022-12-08T08:49:14.128Z,24.73
2022-12-08T08:51:45.063Z,3.73
2022-12-08T08:54:13.526Z,3.20
2022-12-08T08:56:41.681Z,3.10
2022-12-08T08:59:12.518Z,5.20
2022-12-08T09:01:41.179Z,3.63
2022-12-08T09:04:11.076Z,6.23
2022-12-08T09:06:39.521Z,14.37
2022-12-08T09:09:07.710Z,8.77
2022-12-08T09:11:36.338Z,14.33
2022-12-08T09:14:04.925Z,8.77
2022-12-08T09:16:40.408Z,5.27
2022-12-08T09:19:10.643Z,6.87
2022-12-08T09:21:40.950Z,3.20
2022-12-08T09:24:15.417Z,3.00
2022-12-08T09:26:46.794Z,5.87
2022-12-08T09:29:15.711Z,4.50
2022-12-08T09:31:46.233Z,3.40
2022-12-08T09:34:14.936Z,2.20
2022-12-08T09:36:44.741Z,4.43
2022-12-08T09:39:12.933Z,5.37
2022-12-08T09:41:50.124Z,2.27
2022-12-08T09:44:59.792Z,2.00
2022-12-08T09:47:39.852Z,2.43
2022-12-08T09:50:15.518Z,2.83
2022-12-08T09:52:54.737Z,1.60
2022-12-08T09:55:37.846Z,3.13
2022-12-08T09:58:17.362Z,4.10
2022-12-08T10:00:46.427Z,18.13
2022-12-08T10:03:17.147Z,5.10
2022-12-08T10:05:55.582Z,5.13
2022-12-08T10:08:33.498Z,55.37
2022-12-08T10:11:11.474Z,112.23
2022-12-08T10:13:49.193Z,54.07
2022-12-08T10:16:29.871Z,37.93
2022-12-08T10:19:14.117Z,4.40
2022-12-08T10:21:43.475Z,4.27
2022-12-08T10:24:22.498Z,2.47
2022-12-08T10:26:51.509Z,3.07
2022-12-08T10:29:19.811Z,53.63
2022-12-08T10:31:48.800Z,94.80
2022-12-08T10:34:23.199Z,39.03
2022-12-08T10:36:54.400Z,9.57
2022-12-08T10:39:37.882Z,4.60
2022-12-08T14:35:30.732Z,6.73
2022-12-08T14:38:04.517Z,6.53
2022-12-08T14:40:38.770Z,5.57
2022-12-08T14:43:20.780Z,5.00
2022-12-08T14:45:53.601Z,4.57
2022-12-08T14:48:28.632Z,9.30
2022-12-08T14:51:12.991Z,4.40
2022-12-08T14:53:48.686Z,6.57
2022-12-08T14:56:27.632Z,5.77
2022-12-08T14:59:16.631Z,6.57
2022-12-08T15:01:47.065Z,10.93
2022-12-08T15:04:21.886Z,9.83
2022-12-08T15:07:00.929Z,14.70
2022-12-08T15:09:35.651Z,5.07
2022-12-08T15:12:16.555Z,4.10
2022-12-08T15:14:58.772Z,7.20
2022-12-08T15:17:37.094Z,6.33
2022-12-08T15:20:34.595Z,6.20
2022-12-08T15:23:09.075Z,11.30
2022-12-08T15:25:44.385Z,6.27
2022-12-08T15:28:18.849Z,5.97
2022-12-08T15:30:54.838Z,14.70
2022-12-08T15:33:24.200Z,57.77
2022-12-08T15:35:55.292Z,36.33
2022-12-08T15:38:30.448Z,22.33
2022-12-08T15:41:02.601Z,19.20
2022-12-08T15:43:33.778Z,5.57
2022-12-08T15:46:03.342Z,5.60
2022-12-08T15:48:38.801Z,6.97
2022-12-08T15:51:08.584Z,14.73
2022-12-08T15:53:39.611Z,5.37
2022-12-08T15:56:27.440Z,8.43
2022-12-08T15:58:58.970Z,26.93
2022-12-08T16:01:28.371Z,7.30
2022-12-08T16:09:45.957Z,7.93
2022-12-08T16:13:40.233Z,6.67
2022-12-08T16:18:27.786Z,8.13
2022-12-08T16:21:31.553Z,8.63
2022-12-08T16:23:49.529Z,10.80
2022-12-08T16:27:22.036Z,11.47
2022-12-08T16:29:25.239Z,18.50
2022-12-08T16:31:56.545Z,17.53
2022-12-08T16:34:27.045Z,62.20
2022-12-08T16:36:58.695Z,39.23
2022-12-08T16:39:27.955Z,45.80
2022-12-08T16:42:18.619Z,42.33
2022-12-08T16:44:56.980Z,28.07
2022-12-08T16:47:32.183Z,15.87
2022-12-08T16:50:00.888Z,15.77
2022-12-08T16:52:31.854Z,13.27
2022-12-08T16:55:02.136Z,9.10
2022-12-08T16:57:33.010Z,9.47
2022-12-08T17:00:04.370Z,7.00
2022-12-08T17:02:36.460Z,12.30
2022-12-08T17:05:06.765Z,9.63
2022-12-08T17:07:40.646Z,7.70
2022-12-08T17:10:15.527Z,6.27
2022-12-08T17:12:50.222Z,9.63
2022-12-08T17:15:22.880Z,13.53
2022-12-08T17:17:52.799Z,11.17
2022-12-08T17:20:30.520Z,10.83
2022-12-08T17:23:01.060Z,13.13
2022-12-08T17:25:30.225Z,14.07
2022-12-08T17:28:06.539Z,18.93
2022-12-08T17:30:44.325Z,16.23
2022-12-08T17:33:13.603Z,19.53
2022-12-08T17:35:51.779Z,15.30
2022-12-08T17:38:30.424Z,18.63
2022-12-08T17:41:05.614Z,18.73
2022-12-08T17:43:43.156Z,14.40
2022-12-08T17:46:12.589Z,13.13
2022-12-08T17:48:42.053Z,8.63
2022-12-08T17:51:12.308Z,10.77
2022-12-08T17:53:44.659Z,12.83
2022-12-08T17:56:37.411Z,13.90
2022-12-08T17:59:11.279Z,10.00
2022-12-08T18:01:42.321Z,35.53
2022-12-08T18:04:14.102Z,25.63
2022-12-08T18:06:45.724Z,52.03
2022-12-08T18:09:14.854Z,43.47
2022-12-08T18:11:46.289Z,34.97
2022-12-08T18:14:30.195Z,40.77
2022-12-08T18:16:59.976Z,33.40
2022-12-08T18:19:28.653Z,16.60
2022-12-08T18:25:25.852Z,18.70
2022-12-08T18:28:33.019Z,23.87
2022-12-08T18:31:22.118Z,14.37
2022-12-08T18:33:56.437Z,11.10
2022-12-08T18:36:32.186Z,9.23
2022-12-08T18:39:10.929Z,8.83
2022-12-08T18:41:47.280Z,12.97
2022-12-08T18:44:27.137Z,17.33
2022-12-08T18:49:58.540Z,22.40
2022-12-08T18:59:33.852Z,13.33
2022-12-08T19:02:29.283Z,9.43
2022-12-08T19:05:27.237Z,10.37
2022-12-08T19:08:15.727Z,11.37
2022-12-08T19:10:50.164Z,10.67
2022-12-08T19:16:34.200Z,8.67
2022-12-08T19:19:15.767Z,7.97
2022-12-08T19:21:58.142Z,8.33
2022-12-08T19:25:02.627Z,7.37
2022-12-08T19:30:32.029Z,6.83
2022-12-08T19:33:15.008Z,7.37
2022-12-08T19:36:37.364Z,7.13
2022-12-08T19:43:12.730Z,8.27
2022-12-08T19:45:50.181Z,8.07
2022-12-08T19:49:05.509Z,14.43
2022-12-08T19:59:26.460Z,6.97
2022-12-08T21:38:29.822Z,12.70
2022-12-08T22:54:55.448Z,4.50
2022-12-08T22:57:23.880Z,4.30
2022-12-08T22:59:52.329Z,5.63
2022-12-08T23:02:20.746Z,3.47
2022-12-08T23:04:50.437Z,3.47
2022-12-08T23:07:19.489Z,3.50
2022-12-08T23:09:48.600Z,3.73
2022-12-08T23:12:18.393Z,4.03
2022-12-08T23:14:47.493Z,3.90
2022-12-08T23:17:16.371Z,4.53
2022-12-08T23:19:44.868Z,3.50
2022-12-08T23:22:13.956Z,3.80
2022-12-08T23:24:44.799Z,3.20
2022-12-08T23:27:13.370Z,4.10
2022-12-08T23:29:43.025Z,5.23
2022-12-08T23:32:11.798Z,3.23
2022-12-08T23:34:40.547Z,2.67
2022-12-08T23:37:08.855Z,2.93
2022-12-08T23:39:37.815Z,4.00
2022-12-08T23:42:06.948Z,2.87
2022-12-08T23:44:35.367Z,2.47
2022-12-08T23:47:05.142Z,3.33
2022-12-08T23:49:33.420Z,1.97
2022-12-08T23:52:02.546Z,4.40
2022-12-08T23:54:33.745Z,3.93
2022-12-08T23:57:02.520Z,2.87
2022-12-08T23:59:32.723Z,2.37
